createdAt,value
2022-11-29T00:03:58.508Z,83.30
2022-11-29T00:12:16.189Z,85.00
2022-11-29T00:20:24.168Z,86.70
2022-11-29T00:28:29.546Z,87.50
2022-11-29T00:36:38.356Z,85.60
2022-11-29T00:44:43.840Z,85.00
2022-11-29T00:52:51.958Z,86.10
2022-11-29T01:00:57.844Z,87.20
2022-11-29T01:09:06.030Z,85.40
2022-11-29T01:17:11.573Z,86.00
2022-11-29T01:25:19.803Z,86.50
2022-11-29T01:33:25.705Z,85.80
2022-11-29T01:41:35.084Z,86.10
2022-11-29T01:49:43.118Z,86.40
2022-11-29T01:57:51.152Z,88.60
2022-11-29T02:05:57.906Z,88.70
2022-11-29T02:14:21.098Z,90.20
2022-11-29T02:22:32.663Z,90.00
2022-11-29T02:31:06.717Z,89.00
2022-11-29T02:39:55.051Z,88.20
2022-11-29T02:48:21.235Z,88.50
2022-11-29T02:56:37.710Z,88.50
2022-11-29T03:04:51.698Z,88.70
2022-11-29T03:13:01.547Z,87.60
2022-11-29T03:21:21.559Z,86.60
2022-11-29T03:29:35.686Z,86.30
2022-11-29T03:37:48.546Z,84.60
2022-11-29T03:46:01.974Z,86.80
2022-11-29T03:54:10.888Z,87.10
2022-11-29T04:02:50.007Z,85.90
2022-11-29T04:11:25.988Z,88.60
2022-11-29T04:20:00.548Z,89.50
2022-11-29T04:28:33.551Z,89.80
2022-11-29T04:37:12.511Z,88.70
2022-11-29T04:46:05.552Z,88.00
2022-11-29T04:54:20.311Z,88.20
2022-11-29T05:02:36.351Z,86.80
2022-11-29T05:10:48.781Z,87.60
2022-11-29T05:19:21.140Z,87.60
2022-11-29T05:27:39.069Z,87.00
2022-11-29T05:35:54.944Z,88.30
2022-11-29T05:44:10.507Z,89.00
2022-11-29T05:52:28.352Z,88.60
2022-11-29T06:00:43.947Z,86.90
2022-11-29T06:09:09.263Z,86.80
2022-11-29T06:17:52.617Z,85.90
2022-11-29T06:26:13.940Z,85.50
2022-11-29T06:34:30.658Z,86.80
2022-11-29T06:42:39.637Z,88.40
2022-11-29T06:50:56.433Z,88.50
2022-11-29T06:59:10.415Z,87.40
2022-11-29T07:07:21.053Z,85.60
2022-11-29T07:15:30.479Z,83.90
2022-11-29T07:23:39.405Z,82.60
2022-11-29T07:31:57.014Z,81.00
2022-11-29T07:40:08.808Z,81.80
2022-11-29T07:48:19.290Z,81.60
2022-11-29T07:56:24.556Z,80.60
2022-11-29T08:04:32.838Z,80.50
2022-11-29T08:12:38.276Z,80.20
2022-11-29T08:20:46.732Z,74.90
2022-11-29T08:28:55.120Z,70.60
2022-11-29T08:37:05.140Z,68.00
2022-11-29T08:45:17.601Z,69.80
2022-11-29T08:53:40.329Z,71.80
2022-11-29T09:01:45.788Z,72.40
2022-11-29T09:09:53.795Z,73.60
2022-11-29T09:17:59.195Z,74.00
2022-11-29T09:26:08.697Z,73.40
2022-11-29T09:34:16.007Z,73.60
2022-11-29T09:42:43.468Z,71.40
2022-11-29T09:50:51.579Z,70.40
2022-11-29T09:59:02.679Z,68.00
2022-11-29T10:07:14.137Z,67.70
2022-11-29T10:15:25.113Z,68.30
2022-11-29T10:23:36.109Z,69.20
2022-11-29T10:31:49.568Z,69.90
2022-11-29T10:40:00.160Z,68.50
2022-11-29T10:48:12.906Z,69.50
2022-11-29T10:56:27.663Z,70.80
2022-11-29T11:04:39.953Z,69.60
2022-11-29T11:13:05.721Z,69.10
2022-11-29T11:21:17.518Z,73.50
2022-11-29T11:29:25.805Z,77.20
2022-11-29T11:37:35.879Z,77.10
2022-11-29T11:45:41.312Z,76.40
2022-11-29T11:53:55.499Z,76.20
2022-11-29T12:02:01.230Z,76.80
2022-11-29T12:10:20.267Z,76.70
2022-11-29T12:18:33.679Z,79.20
2022-11-29T12:27:01.062Z,76.20
2022-11-29T12:35:35.272Z,76.10
2022-11-29T12:43:56.721Z,76.10
2022-11-29T12:52:12.329Z,74.80
2022-11-29T13:00:22.772Z,76.20
2022-11-29T13:08:55.986Z,75.40
2022-11-29T13:17:06.771Z,74.70
2022-11-29T13:25:19.537Z,74.20
2022-11-29T13:33:34.195Z,74.10
2022-11-29T13:41:49.399Z,74.70
2022-11-29T13:50:04.563Z,76.10
2022-11-29T13:58:36.438Z,75.20
2022-11-29T14:06:48.121Z,74.80
2022-11-29T14:14:57.239Z,74.80
2022-11-29T14:23:21.357Z,75.40
2022-11-29T14:31:52.498Z,75.60
2022-11-29T14:40:03.775Z,75.30
2022-11-29T14:48:26.955Z,75.80
2022-11-29T14:56:42.946Z,76.60
2022-11-29T15:04:49.072Z,77.60
2022-11-29T15:12:58.262Z,77.90
2022-11-29T15:21:18.006Z,80.00
2022-11-29T15:29:33.706Z,81.10
2022-11-29T15:37:46.869Z,80.70
2022-11-29T15:45:55.847Z,80.00
2022-11-29T15:54:13.444Z,80.10
2022-11-29T16:02:26.044Z,79.80
2022-11-29T16:10:37.446Z,79.80
2022-11-29T16:18:47.714Z,79.70
2022-11-29T16:26:53.982Z,80.10
2022-11-29T16:35:10.112Z,80.00
2022-11-29T16:43:57.247Z,80.10
2022-11-29T16:52:26.851Z,79.60
2022-11-29T17:00:35.291Z,79.80
2022-11-29T17:08:44.627Z,79.80
2022-11-29T17:16:52.187Z,79.80
2022-11-29T17:25:01.163Z,79.70
2022-11-29T17:33:07.104Z,80.20
2022-11-29T17:41:18.284Z,80.50
2022-11-29T17:49:24.281Z,80.40
2022-11-29T17:57:32.225Z,80.60
2022-11-29T18:05:39.316Z,80.40
2022-11-29T18:13:47.471Z,80.40
2022-11-29T18:21:54.375Z,80.50
2022-11-29T18:30:03.146Z,80.60
2022-11-29T18:38:16.894Z,81.10
2022-11-29T18:46:25.654Z,81.10
2022-11-29T18:54:32.008Z,81.10
2022-11-29T19:02:40.104Z,81.40
2022-11-29T19:10:45.582Z,82.10
2022-11-29T19:18:55.469Z,81.80
2022-11-29T19:27:01.536Z,81.20
2022-11-29T19:35:10.545Z,83.50
2022-11-29T19:43:18.544Z,82.80
2022-11-29T19:51:28.769Z,83.00
2022-11-29T19:59:34.146Z,82.10
2022-11-29T20:07:43.632Z,82.40
2022-11-29T20:15:50.005Z,82.00
2022-11-29T20:24:02.830Z,82.30
2022-11-29T20:32:08.863Z,82.10
2022-11-29T20:40:22.343Z,81.50
2022-11-29T20:48:28.974Z,81.60
2022-11-29T20:56:37.065Z,81.40
2022-11-29T21:04:42.354Z,82.20
2022-11-29T21:12:51.258Z,82.70
2022-11-29T21:21:11.500Z,82.60
2022-11-29T21:29:23.854Z,82.70
2022-11-29T21:37:35.769Z,82.40
2022-11-29T21:45:43.818Z,82.50
2022-11-29T21:53:49.151Z,82.50
2022-11-29T22:01:57.463Z,82.80
2022-11-29T22:10:11.589Z,83.10
2022-11-29T22:18:21.298Z,83.20
2022-11-29T22:26:26.672Z,83.60
2022-11-29T22:34:37.832Z,83.90
2022-11-29T22:42:52.205Z,84.60
2022-11-29T22:51:09.968Z,84.50
2022-11-29T22:59:15.568Z,84.60
2022-11-29T23:07:28.490Z,84.60
2022-11-29T23:15:36.241Z,85.00
2022-11-29T23:23:45.189Z,84.50
2022-11-29T23:31:51.150Z,84.50
2022-11-29T23:39:59.061Z,85.30
2022-11-29T23:48:04.402Z,84.60
2022-11-29T23:56:15.897Z,84.60
